sensor_id;sensor_type;location;lat;lon;timestamp;temperature;humidity
10911;DHT22;5508;49.150;11.030;2024-02-15T00:00:48;7.40;99.90
10911;DHT22;5508;49.150;11.030;2024-02-15T00:03:49;7.40;99.90
10911;DHT22;5508;49.150;11.030;2024-02-15T00:06:49;7.50;99.90
10911;DHT22;5508;49.150;11.030;2024-02-15T00:09:50;7.50;99.90
10911;DHT22;5508;49.150;11.030;2024-02-15T00:12:51;7.50;99.90
10911;DHT22;5508;49.150;11.030;2024-02-15T00:15:51;7.50;99.90
10911;DHT22;5508;49.150;11.030;2024-02-15T00:18:53;7.60;99.90
10911;DHT22;5508;49.150;11.030;2024-02-15T00:21:55;7.60;99.90
10911;DHT22;5508;49.150;11.030;2024-02-15T00:24:56;7.60;99.90
10911;DHT22;5508;49.150;11.030;2024-02-15T00:27:58;7.60;99.90
10911;DHT22;5508;49.150;11.030;2024-02-15T00:31:00;7.50;99.90
10911;DHT22;5508;49.150;11.030;2024-02-15T00:34:01;7.50;99.90
10911;DHT22;5508;49.150;11.030;2024-02-15T00:37:03;7.50;99.90
10911;DHT22;5508;49.150;11.030;2024-02-15T00:40:04;7.50;99.90
10911;DHT22;5508;49.150;11.030;2024-02-15T00:43:05;7.50;99.90
10911;DHT22;5508;49.150;11.030;2024-02-15T00:46:05;7.60;99.90
10911;DHT22;5508;49.150;11.030;2024-02-15T00:49:06;7.60;99.90
10911;DHT22;5508;49.150;11.030;2024-02-15T00:52:06;7.50;99.90
10911;DHT22;5508;49.150;11.030;2024-02-15T00:55:07;7.60;99.90
10911;DHT22;5508;49.150;11.030;2024-02-15T00:58:08;7.50;99.90
10911;DHT22;5508;49.150;11.030;2024-02-15T01:01:08;7.60;99.90
10911;DHT22;5508;49.150;11.030;2024-02-15T01:04:09;7.60;99.90
10911;DHT22;5508;49.150;11.030;2024-02-15T01:07:10;7.60;99.90
10911;DHT22;5508;49.150;11.030;2024-02-15T01:10:10;7.70;99.90
10911;DHT22;5508;49.150;11.030;2024-02-15T01:13:11;7.70;99.90
10911;DHT22;5508;49.150;11.030;2024-02-15T01:16:12;7.70;99.90
10911;DHT22;5508;49.150;11.030;2024-02-15T01:19:13;7.60;99.90
10911;DHT22;5508;49.150;11.030;2024-02-15T01:22:13;7.60;99.90
10911;DHT22;5508;49.150;11.030;2024-02-15T01:25:16;7.50;99.90
10911;DHT22;5508;49.150;11.030;2024-02-15T01:28:18;7.50;99.90
10911;DHT22;5508;49.150;11.030;2024-02-15T01:31:18;7.50;99.90
10911;DHT22;5508;49.150;11.030;2024-02-15T01:34:19;7.50;99.90
10911;DHT22;5508;49.150;11.030;2024-02-15T01:37:20;7.40;99.90
10911;DHT22;5508;49.150;11.030;2024-02-15T01:40:21;7.30;99.90
10911;DHT22;5508;49.150;11.030;2024-02-15T01:43:22;7.40;99.90
10911;DHT22;5508;49.150;11.030;2024-02-15T01:46:22;7.40;99.90
10911;DHT22;5508;49.150;11.030;2024-02-15T01:49:23;7.30;99.90
10911;DHT22;5508;49.150;11.030;2024-02-15T01:52:24;7.40;99.90
10911;DHT22;5508;49.150;11.030;2024-02-15T01:55:25;7.40;99.90
10911;DHT22;5508;49.150;11.030;2024-02-15T01:58:27;7.40;99.90
10911;DHT22;5508;49.150;11.030;2024-02-15T02:01:30;7.40;99.90
10911;DHT22;5508;49.150;11.030;2024-02-15T02:04:32;7.40;99.90
10911;DHT22;5508;49.150;11.030;2024-02-15T02:07:33;7.40;99.90
10911;DHT22;5508;49.150;11.030;2024-02-15T02:10:34;7.40;99.90
10911;DHT22;5508;49.150;11.030;2024-02-15T02:13:34;7.50;99.90
10911;DHT22;5508;49.150;11.030;2024-02-15T02:16:35;7.50;99.90
10911;DHT22;5508;49.150;11.030;2024-02-15T02:19:36;7.50;99.90
10911;DHT22;5508;49.150;11.030;2024-02-15T02:22:38;7.50;99.90
10911;DHT22;5508;49.150;11.030;2024-02-15T02:25:42;7.60;99.90
10911;DHT22;5508;49.150;11.030;2024-02-15T02:28:43;7.60;99.90
10911;DHT22;5508;49.150;11.030;2024-02-15T02:31:43;7.60;99.90
10911;DHT22;5508;49.150;11.030;2024-02-15T02:34:44;7.60;99.90
10911;DHT22;5508;49.150;11.030;2024-02-15T02:37:45;7.50;99.90
10911;DHT22;5508;49.150;11.030;2024-02-15T02:40:46;7.60;99.90
10911;DHT22;5508;49.150;11.030;2024-02-15T02:43:47;7.60;99.90
10911;DHT22;5508;49.150;11.030;2024-02-15T02:46:48;7.60;99.90
10911;DHT22;5508;49.150;11.030;2024-02-15T02:49:48;7.50;99.90
10911;DHT22;5508;49.150;11.030;2024-02-15T02:52:49;7.50;99.90
10911;DHT22;5508;49.150;11.030;2024-02-15T02:55:51;7.50;99.90
10911;DHT22;5508;49.150;11.030;2024-02-15T02:58:51;7.50;99.90
10911;DHT22;5508;49.150;11.030;2024-02-15T03:01:53;7.40;99.90
10911;DHT22;5508;49.150;11.030;2024-02-15T03:04:56;7.50;99.90
10911;DHT22;5508;49.150;11.030;2024-02-15T03:07:58;7.40;99.90
10911;DHT22;5508;49.150;11.030;2024-02-15T03:10:58;7.40;99.90
10911;DHT22;5508;49.150;11.030;2024-02-15T03:13:59;7.40;99.90
10911;DHT22;5508;49.150;11.030;2024-02-15T03:17:00;7.40;99.90
10911;DHT22;5508;49.150;11.030;2024-02-15T03:20:05;7.50;99.90
10911;DHT22;5508;49.150;11.030;2024-02-15T03:23:11;7.40;99.90
10911;DHT22;5508;49.150;11.030;2024-02-15T03:26:11;7.40;99.90
10911;DHT22;5508;49.150;11.030;2024-02-15T03:29:12;7.40;99.90
10911;DHT22;5508;49.150;11.030;2024-02-15T03:32:12;7.40;99.90
10911;DHT22;5508;49.150;11.030;2024-02-15T03:35:13;7.40;99.90
10911;DHT22;5508;49.150;11.030;2024-02-15T03:38:14;7.40;99.90
10911;DHT22;5508;49.150;11.030;2024-02-15T03:41:15;7.40;99.90
10911;DHT22;5508;49.150;11.030;2024-02-15T03:44:15;7.40;99.90
10911;DHT22;5508;49.150;11.030;2024-02-15T03:47:18;7.30;99.90
10911;DHT22;5508;49.150;11.030;2024-02-15T03:50:19;7.30;99.90
10911;DHT22;5508;49.150;11.030;2024-02-15T03:53:22;7.30;99.90
10911;DHT22;5508;49.150;11.030;2024-02-15T03:56:22;7.30;99.90
10911;DHT22;5508;49.150;11.030;2024-02-15T03:59:23;7.20;99.90
10911;DHT22;5508;49.150;11.030;2024-02-15T04:02:27;7.20;99.90
10911;DHT22;5508;49.150;11.030;2024-02-15T04:05:28;7.10;99.90
10911;DHT22;5508;49.150;11.030;2024-02-15T04:08:29;7.00;99.90
10911;DHT22;5508;49.150;11.030;2024-02-15T04:11:30;7.00;99.90
10911;DHT22;5508;49.150;11.030;2024-02-15T04:14:32;6.80;99.90
10911;DHT22;5508;49.150;11.030;2024-02-15T04:17:34;6.80;99.90
10911;DHT22;5508;49.150;11.030;2024-02-15T04:20:35;6.70;99.90
10911;DHT22;5508;49.150;11.030;2024-02-15T04:23:35;6.60;99.90
10911;DHT22;5508;49.150;11.030;2024-02-15T04:26:36;6.60;99.90
10911;DHT22;5508;49.150;11.030;2024-02-15T04:29:38;6.50;99.90
10911;DHT22;5508;49.150;11.030;2024-02-15T04:32:41;6.40;99.90
10911;DHT22;5508;49.150;11.030;2024-02-15T04:35:42;6.30;99.90
10911;DHT22;5508;49.150;11.030;2024-02-15T04:38:43;6.20;99.90
10911;DHT22;5508;49.150;11.030;2024-02-15T04:41:44;6.20;99.90
10911;DHT22;5508;49.150;11.030;2024-02-15T04:44:47;6.00;99.90
10911;DHT22;5508;49.150;11.030;2024-02-15T04:47:47;6.00;99.90
10911;DHT22;5508;49.150;11.030;2024-02-15T04:50:50;5.80;99.90
10911;DHT22;5508;49.150;11.030;2024-02-15T04:53:51;5.60;99.90
10911;DHT22;5508;49.150;11.030;2024-02-15T04:56:52;5.50;99.90
10911;DHT22;5508;49.150;11.030;2024-02-15T04:59:55;5.50;99.90
10911;DHT22;5508;49.150;11.030;2024-02-15T05:02:56;5.50;99.90
10911;DHT22;5508;49.150;11.030;2024-02-15T05:05:56;5.50;99.90
10911;DHT22;5508;49.150;11.030;2024-02-15T05:08:57;5.50;99.90
10911;DHT22;5508;49.150;11.030;2024-02-15T05:12:00;5.40;99.90
10911;DHT22;5508;49.150;11.030;2024-02-15T05:15:02;5.50;99.90
10911;DHT22;5508;49.150;11.030;2024-02-15T05:18:10;5.70;99.90
10911;DHT22;5508;49.150;11.030;2024-02-15T05:21:11;5.60;99.90
10911;DHT22;5508;49.150;11.030;2024-02-15T05:24:16;5.40;99.90
10911;DHT22;5508;49.150;11.030;2024-02-15T05:27:17;5.40;99.90
10911;DHT22;5508;49.150;11.030;2024-02-15T05:30:17;5.40;99.90
10911;DHT22;5508;49.150;11.030;2024-02-15T05:33:18;5.40;99.90
10911;DHT22;5508;49.150;11.030;2024-02-15T05:36:20;5.40;99.90
10911;DHT22;5508;49.150;11.030;2024-02-15T05:39:22;5.50;99.90
10911;DHT22;5508;49.150;11.030;2024-02-15T05:42:23;5.40;99.90
10911;DHT22;5508;49.150;11.030;2024-02-15T05:48:30;5.10;99.90
10911;DHT22;5508;49.150;11.030;2024-02-15T05:51:31;5.10;99.90
10911;DHT22;5508;49.150;11.030;2024-02-15T05:54:32;5.20;99.90
10911;DHT22;5508;49.150;11.030;2024-02-15T05:57:32;5.30;99.90
10911;DHT22;5508;49.150;11.030;2024-02-15T06:00:33;5.30;99.90
10911;DHT22;5508;49.150;11.030;2024-02-15T06:03:35;5.40;99.90
10911;DHT22;5508;49.150;11.030;2024-02-15T06:06:38;5.50;99.90
10911;DHT22;5508;49.150;11.030;2024-02-15T06:09:38;5.70;99.90
10911;DHT22;5508;49.150;11.030;2024-02-15T06:12:41;5.90;99.90
10911;DHT22;5508;49.150;11.030;2024-02-15T06:15:42;5.90;99.90
10911;DHT22;5508;49.150;11.030;2024-02-15T06:18:42;6.00;99.90
10911;DHT22;5508;49.150;11.030;2024-02-15T06:21:43;6.00;99.90
10911;DHT22;5508;49.150;11.030;2024-02-15T06:24:44;6.00;99.90
10911;DHT22;5508;49.150;11.030;2024-02-15T06:27:44;6.00;99.90
10911;DHT22;5508;49.150;11.030;2024-02-15T06:30:46;6.10;99.90
10911;DHT22;5508;49.150;11.030;2024-02-15T06:34:05;6.00;99.90
10911;DHT22;5508;49.150;11.030;2024-02-15T06:37:37;6.10;99.90
10911;DHT22;5508;49.150;11.030;2024-02-15T06:40:56;6.10;99.90
10911;DHT22;5508;49.150;11.030;2024-02-15T06:43:57;6.10;99.90
10911;DHT22;5508;49.150;11.030;2024-02-15T06:46:58;6.20;99.90
10911;DHT22;5508;49.150;11.030;2024-02-15T06:50:00;6.20;99.90
10911;DHT22;5508;49.150;11.030;2024-02-15T06:53:00;6.20;99.90
10911;DHT22;5508;49.150;11.030;2024-02-15T06:56:01;6.20;99.90
10911;DHT22;5508;49.150;11.030;2024-02-15T06:59:03;6.30;99.90
10911;DHT22;5508;49.150;11.030;2024-02-15T07:02:03;6.30;99.90
10911;DHT22;5508;49.150;11.030;2024-02-15T07:05:08;6.30;99.90
10911;DHT22;5508;49.150;11.030;2024-02-15T07:08:10;6.40;99.90
10911;DHT22;5508;49.150;11.030;2024-02-15T07:11:13;6.50;99.90
10911;DHT22;5508;49.150;11.030;2024-02-15T07:14:13;6.60;99.90
10911;DHT22;5508;49.150;11.030;2024-02-15T07:17:16;6.60;99.90
10911;DHT22;5508;49.150;11.030;2024-02-15T07:20:16;6.70;99.90
10911;DHT22;5508;49.150;11.030;2024-02-15T07:23:17;6.80;99.90
10911;DHT22;5508;49.150;11.030;2024-02-15T07:26:18;6.80;99.90
10911;DHT22;5508;49.150;11.030;2024-02-15T07:29:21;6.80;99.90
10911;DHT22;5508;49.150;11.030;2024-02-15T07:32:23;6.80;99.90
10911;DHT22;5508;49.150;11.030;2024-02-15T07:35:24;6.80;99.90
10911;DHT22;5508;49.150;11.030;2024-02-15T07:38:25;6.80;99.90
10911;DHT22;5508;49.150;11.030;2024-02-15T07:41:26;6.90;99.90
10911;DHT22;5508;49.150;11.030;2024-02-15T07:44:26;7.00;99.90
10911;DHT22;5508;49.150;11.030;2024-02-15T07:47:30;7.10;99.90
10911;DHT22;5508;49.150;11.030;2024-02-15T07:50:31;7.30;99.90
10911;DHT22;5508;49.150;11.030;2024-02-15T07:53:31;7.40;99.90
10911;DHT22;5508;49.150;11.030;2024-02-15T07:56:32;7.50;99.90
10911;DHT22;5508;49.150;11.030;2024-02-15T07:59:33;7.60;99.90
10911;DHT22;5508;49.150;11.030;2024-02-15T08:02:33;7.60;99.90
10911;DHT22;5508;49.150;11.030;2024-02-15T08:05:34;7.70;99.90
10911;DHT22;5508;49.150;11.030;2024-02-15T08:08:37;7.80;99.90
10911;DHT22;5508;49.150;11.030;2024-02-15T08:11:37;7.90;99.90
10911;DHT22;5508;49.150;11.030;2024-02-15T08:14:39;8.00;99.90
10911;DHT22;5508;49.150;11.030;2024-02-15T08:17:41;8.10;99.90
10911;DHT22;5508;49.150;11.030;2024-02-15T08:20:42;8.30;99.90
10911;DHT22;5508;49.150;11.030;2024-02-15T08:23:45;8.30;99.90
10911;DHT22;5508;49.150;11.030;2024-02-15T08:26:45;8.40;99.90
10911;DHT22;5508;49.150;11.030;2024-02-15T08:29:46;8.60;99.90
10911;DHT22;5508;49.150;11.030;2024-02-15T08:32:46;8.70;99.90
10911;DHT22;5508;49.150;11.030;2024-02-15T08:35:48;8.70;99.90
10911;DHT22;5508;49.150;11.030;2024-02-15T08:38:51;8.70;99.90
10911;DHT22;5508;49.150;11.030;2024-02-15T08:41:52;8.80;99.90
10911;DHT22;5508;49.150;11.030;2024-02-15T08:44:53;9.00;99.90
10911;DHT22;5508;49.150;11.030;2024-02-15T08:47:54;9.10;99.90
10911;DHT22;5508;49.150;11.030;2024-02-15T08:50:54;9.00;99.90
10911;DHT22;5508;49.150;11.030;2024-02-15T08:53:55;9.10;99.90
10911;DHT22;5508;49.150;11.030;2024-02-15T08:56:56;9.10;99.90
10911;DHT22;5508;49.150;11.030;2024-02-15T08:59:56;9.20;99.90
10911;DHT22;5508;49.150;11.030;2024-02-15T09:02:57;9.40;99.90
10911;DHT22;5508;49.150;11.030;2024-02-15T09:05:58;9.50;99.90
10911;DHT22;5508;49.150;11.030;2024-02-15T09:09:03;9.60;99.90
10911;DHT22;5508;49.150;11.030;2024-02-15T09:12:04;9.70;99.90
10911;DHT22;5508;49.150;11.030;2024-02-15T09:15:08;9.80;99.90
10911;DHT22;5508;49.150;11.030;2024-02-15T09:18:08;9.90;99.90
10911;DHT22;5508;49.150;11.030;2024-02-15T09:21:12;10.10;99.90
10911;DHT22;5508;49.150;11.030;2024-02-15T09:24:13;10.40;99.90
10911;DHT22;5508;49.150;11.030;2024-02-15T09:27:16;10.60;99.90
10911;DHT22;5508;49.150;11.030;2024-02-15T09:30:17;10.60;99.90
10911;DHT22;5508;49.150;11.030;2024-02-15T09:33:21;10.80;99.90
10911;DHT22;5508;49.150;11.030;2024-02-15T09:36:21;11.10;99.90
10911;DHT22;5508;49.150;11.030;2024-02-15T09:39:22;11.20;97.70
10911;DHT22;5508;49.150;11.030;2024-02-15T09:42:23;11.60;95.40
10911;DHT22;5508;49.150;11.030;2024-02-15T09:45:24;11.70;92.10
10911;DHT22;5508;49.150;11.030;2024-02-15T09:48:25;12.20;93.80
10911;DHT22;5508;49.150;11.030;2024-02-15T09:51:29;12.50;90.20
10911;DHT22;5508;49.150;11.030;2024-02-15T09:54:34;12.70;88.80
10911;DHT22;5508;49.150;11.030;2024-02-15T09:57:35;12.80;87.30
10911;DHT22;5508;49.150;11.030;2024-02-15T10:00:36;12.50;83.50
10911;DHT22;5508;49.150;11.030;2024-02-15T10:03:37;12.40;83.40
10911;DHT22;5508;49.150;11.030;2024-02-15T10:06:41;12.80;79.90
10911;DHT22;5508;49.150;11.030;2024-02-15T10:09:42;12.80;81.40
10911;DHT22;5508;49.150;11.030;2024-02-15T10:12:43;12.90;81.40
10911;DHT22;5508;49.150;11.030;2024-02-15T10:15:44;13.20;77.60
10911;DHT22;5508;49.150;11.030;2024-02-15T10:18:45;13.20;74.80
10911;DHT22;5508;49.150;11.030;2024-02-15T10:21:48;13.10;72.80
10911;DHT22;5508;49.150;11.030;2024-02-15T10:24:50;13.30;72.00
10911;DHT22;5508;49.150;11.030;2024-02-15T10:28:01;13.50;70.40
10911;DHT22;5508;49.150;11.030;2024-02-15T10:31:07;13.80;74.00
10911;DHT22;5508;49.150;11.030;2024-02-15T10:34:08;13.70;68.30
10911;DHT22;5508;49.150;11.030;2024-02-15T10:37:13;13.80;69.80
10911;DHT22;5508;49.150;11.030;2024-02-15T10:40:17;13.60;68.50
10911;DHT22;5508;49.150;11.030;2024-02-15T10:43:19;13.40;69.10
10911;DHT22;5508;49.150;11.030;2024-02-15T10:46:20;13.30;68.60
10911;DHT22;5508;49.150;11.030;2024-02-15T10:49:24;13.30;66.90
10911;DHT22;5508;49.150;11.030;2024-02-15T10:52:31;13.40;69.70
10911;DHT22;5508;49.150;11.030;2024-02-15T10:55:40;13.70;68.30
10911;DHT22;5508;49.150;11.030;2024-02-15T10:58:50;13.50;67.10
10911;DHT22;5508;49.150;11.030;2024-02-15T11:01:54;13.40;66.10
10911;DHT22;5508;49.150;11.030;2024-02-15T11:05:05;13.60;67.00
10911;DHT22;5508;49.150;11.030;2024-02-15T11:08:10;13.90;68.20
10911;DHT22;5508;49.150;11.030;2024-02-15T11:11:11;14.00;63.00
10911;DHT22;5508;49.150;11.030;2024-02-15T11:14:27;13.90;66.40
10911;DHT22;5508;49.150;11.030;2024-02-15T11:23:45;13.90;65.60
10911;DHT22;5508;49.150;11.030;2024-02-15T11:26:46;14.00;72.50
10911;DHT22;5508;49.150;11.030;2024-02-15T11:29:54;14.00;69.40
10911;DHT22;5508;49.150;11.030;2024-02-15T11:32:56;14.30;70.50
10911;DHT22;5508;49.150;11.030;2024-02-15T11:36:13;14.10;76.00
10911;DHT22;5508;49.150;11.030;2024-02-15T11:39:39;14.20;81.40
10911;DHT22;5508;49.150;11.030;2024-02-15T11:42:40;14.30;71.10
10911;DHT22;5508;49.150;11.030;2024-02-15T11:45:41;14.40;73.30
10911;DHT22;5508;49.150;11.030;2024-02-15T11:48:41;14.30;72.00
10911;DHT22;5508;49.150;11.030;2024-02-15T11:51:42;14.40;66.80
10911;DHT22;5508;49.150;11.030;2024-02-15T11:54:43;14.40;71.20
10911;DHT22;5508;49.150;11.030;2024-02-15T11:57:43;14.50;74.50
10911;DHT22;5508;49.150;11.030;2024-02-15T12:00:51;14.50;75.30
10911;DHT22;5508;49.150;11.030;2024-02-15T12:04:12;14.20;74.50
10911;DHT22;5508;49.150;11.030;2024-02-15T12:07:32;14.50;76.50
10911;DHT22;5508;49.150;11.030;2024-02-15T12:10:59;14.60;74.00
10911;DHT22;5508;49.150;11.030;2024-02-15T12:14:19;14.60;81.70
10911;DHT22;5508;49.150;11.030;2024-02-15T12:17:38;14.60;80.70
10911;DHT22;5508;49.150;11.030;2024-02-15T12:20:57;14.40;77.60
10911;DHT22;5508;49.150;11.030;2024-02-15T12:23:59;14.60;79.40
10911;DHT22;5508;49.150;11.030;2024-02-15T12:27:00;14.70;77.90
10911;DHT22;5508;49.150;11.030;2024-02-15T12:30:04;14.70;78.60
10911;DHT22;5508;49.150;11.030;2024-02-15T12:33:13;14.60;76.90
10911;DHT22;5508;49.150;11.030;2024-02-15T12:36:19;14.50;78.50
10911;DHT22;5508;49.150;11.030;2024-02-15T12:39:26;14.40;78.40
10911;DHT22;5508;49.150;11.030;2024-02-15T12:42:28;14.60;73.60
10911;DHT22;5508;49.150;11.030;2024-02-15T12:45:28;14.80;78.60
10911;DHT22;5508;49.150;11.030;2024-02-15T12:48:30;14.70;78.60
10911;DHT22;5508;49.150;11.030;2024-02-15T12:51:31;14.60;73.50
10911;DHT22;5508;49.150;11.030;2024-02-15T12:54:31;14.50;75.80
10911;DHT22;5508;49.150;11.030;2024-02-15T12:57:32;14.40;77.50
10911;DHT22;5508;49.150;11.030;2024-02-15T13:00:32;14.40;78.30
10911;DHT22;5508;49.150;11.030;2024-02-15T13:03:33;14.50;75.40
10911;DHT22;5508;49.150;11.030;2024-02-15T13:06:34;14.60;75.80
10911;DHT22;5508;49.150;11.030;2024-02-15T13:09:36;14.70;73.60
10911;DHT22;5508;49.150;11.030;2024-02-15T13:12:37;14.60;71.20
10911;DHT22;5508;49.150;11.030;2024-02-15T13:15:38;14.70;73.50
10911;DHT22;5508;49.150;11.030;2024-02-15T13:18:38;14.60;71.10
10911;DHT22;5508;49.150;11.030;2024-02-15T13:21:40;14.80;72.40
10911;DHT22;5508;49.150;11.030;2024-02-15T13:24:41;14.80;72.00
10911;DHT22;5508;49.150;11.030;2024-02-15T13:27:41;14.70;68.80
10911;DHT22;5508;49.150;11.030;2024-02-15T13:30:43;14.60;65.60
10911;DHT22;5508;49.150;11.030;2024-02-15T13:33:45;14.90;62.40
10911;DHT22;5508;49.150;11.030;2024-02-15T13:36:47;14.80;62.60
10911;DHT22;5508;49.150;11.030;2024-02-15T13:39:48;15.00;61.70
10911;DHT22;5508;49.150;11.030;2024-02-15T13:42:50;14.60;65.00
10911;DHT22;5508;49.150;11.030;2024-02-15T13:45:53;14.40;66.60
10911;DHT22;5508;49.150;11.030;2024-02-15T13:48:54;14.70;65.70
10911;DHT22;5508;49.150;11.030;2024-02-15T13:51:54;14.90;66.90
10911;DHT22;5508;49.150;11.030;2024-02-15T13:54:55;15.00;64.50
10911;DHT22;5508;49.150;11.030;2024-02-15T13:57:57;15.00;62.30
10911;DHT22;5508;49.150;11.030;2024-02-15T14:00:57;14.90;64.80
10911;DHT22;5508;49.150;11.030;2024-02-15T14:04:01;15.00;66.20
10911;DHT22;5508;49.150;11.030;2024-02-15T14:07:01;14.90;65.50
10911;DHT22;5508;49.150;11.030;2024-02-15T14:10:03;14.80;68.30
10911;DHT22;5508;49.150;11.030;2024-02-15T14:13:04;14.60;66.90
10911;DHT22;5508;49.150;11.030;2024-02-15T14:16:09;14.50;69.20
10911;DHT22;5508;49.150;11.030;2024-02-15T14:19:09;14.30;67.80
10911;DHT22;5508;49.150;11.030;2024-02-15T14:22:13;14.20;70.30
10911;DHT22;5508;49.150;11.030;2024-02-15T14:25:16;14.20;70.60
10911;DHT22;5508;49.150;11.030;2024-02-15T14:28:17;14.20;69.80
10911;DHT22;5508;49.150;11.030;2024-02-15T14:31:18;14.10;70.90
10911;DHT22;5508;49.150;11.030;2024-02-15T14:34:37;14.30;70.10
10911;DHT22;5508;49.150;11.030;2024-02-15T14:37:39;14.40;71.70
10911;DHT22;5508;49.150;11.030;2024-02-15T14:40:45;14.60;70.30
10911;DHT22;5508;49.150;11.030;2024-02-15T14:43:53;14.70;67.60
10911;DHT22;5508;49.150;11.030;2024-02-15T14:46:55;14.60;69.60
10911;DHT22;5508;49.150;11.030;2024-02-15T14:49:55;14.60;69.90
10911;DHT22;5508;49.150;11.030;2024-02-15T14:52:56;14.60;69.20
10911;DHT22;5508;49.150;11.030;2024-02-15T14:55:57;14.70;69.30
10911;DHT22;5508;49.150;11.030;2024-02-15T14:58:58;14.60;70.10
10911;DHT22;5508;49.150;11.030;2024-02-15T15:01:58;14.30;67.60
10911;DHT22;5508;49.150;11.030;2024-02-15T15:05:09;14.20;67.90
10911;DHT22;5508;49.150;11.030;2024-02-15T15:08:28;13.90;69.50
10911;DHT22;5508;49.150;11.030;2024-02-15T15:11:47;13.80;68.80
10911;DHT22;5508;49.150;11.030;2024-02-15T15:15:06;13.70;70.00
10911;DHT22;5508;49.150;11.030;2024-02-15T15:18:07;13.70;72.00
10911;DHT22;5508;49.150;11.030;2024-02-15T15:21:08;13.70;71.00
10911;DHT22;5508;49.150;11.030;2024-02-15T15:24:09;13.60;70.40
10911;DHT22;5508;49.150;11.030;2024-02-15T15:27:10;13.40;72.00
10911;DHT22;5508;49.150;11.030;2024-02-15T15:30:11;13.30;71.90
10911;DHT22;5508;49.150;11.030;2024-02-15T15:33:11;13.20;73.00
10911;DHT22;5508;49.150;11.030;2024-02-15T15:36:13;13.10;73.40
10911;DHT22;5508;49.150;11.030;2024-02-15T15:39:16;12.90;75.30
10911;DHT22;5508;49.150;11.030;2024-02-15T15:42:17;12.70;76.00
10911;DHT22;5508;49.150;11.030;2024-02-15T15:45:18;12.60;76.30
10911;DHT22;5508;49.150;11.030;2024-02-15T15:48:19;12.60;76.70
10911;DHT22;5508;49.150;11.030;2024-02-15T15:51:19;12.50;77.00
10911;DHT22;5508;49.150;11.030;2024-02-15T15:54:20;12.30;78.30
10911;DHT22;5508;49.150;11.030;2024-02-15T15:57:21;12.10;80.00
10911;DHT22;5508;49.150;11.030;2024-02-15T16:00:22;12.00;80.30
10911;DHT22;5508;49.150;11.030;2024-02-15T16:03:23;11.90;81.20
10911;DHT22;5508;49.150;11.030;2024-02-15T16:06:23;11.70;82.50
10911;DHT22;5508;49.150;11.030;2024-02-15T16:09:24;11.70;82.50
10911;DHT22;5508;49.150;11.030;2024-02-15T16:12:25;11.70;82.30
10911;DHT22;5508;49.150;11.030;2024-02-15T16:15:25;11.50;83.20
10911;DHT22;5508;49.150;11.030;2024-02-15T16:18:26;11.40;83.80
10911;DHT22;5508;49.150;11.030;2024-02-15T16:21:26;11.40;83.80
10911;DHT22;5508;49.150;11.030;2024-02-15T16:24:27;11.30;85.10
10911;DHT22;5508;49.150;11.030;2024-02-15T16:27:28;11.30;84.60
10911;DHT22;5508;49.150;11.030;2024-02-15T16:30:28;11.10;85.10
10911;DHT22;5508;49.150;11.030;2024-02-15T16:33:29;11.10;85.30
10911;DHT22;5508;49.150;11.030;2024-02-15T16:36:30;11.00;85.30
10911;DHT22;5508;49.150;11.030;2024-02-15T16:39:30;10.80;85.50
10911;DHT22;5508;49.150;11.030;2024-02-15T16:42:31;10.70;86.50
10911;DHT22;5508;49.150;11.030;2024-02-15T16:45:33;10.60;87.60
10911;DHT22;5508;49.150;11.030;2024-02-15T16:48:34;10.40;88.80
10911;DHT22;5508;49.150;11.030;2024-02-15T16:51:35;10.20;90.10
10911;DHT22;5508;49.150;11.030;2024-02-15T16:54:35;10.10;90.60
10911;DHT22;5508;49.150;11.030;2024-02-15T16:57:37;10.00;91.30
10911;DHT22;5508;49.150;11.030;2024-02-15T17:00:41;10.00;91.80
10911;DHT22;5508;49.150;11.030;2024-02-15T17:03:41;10.10;91.80
10911;DHT22;5508;49.150;11.030;2024-02-15T17:06:43;10.20;90.40
10911;DHT22;5508;49.150;11.030;2024-02-15T17:09:43;10.10;91.50
10911;DHT22;5508;49.150;11.030;2024-02-15T17:12:44;10.10;91.10
10911;DHT22;5508;49.150;11.030;2024-02-15T17:15:45;10.10;90.90
10911;DHT22;5508;49.150;11.030;2024-02-15T17:18:46;10.20;90.20
10911;DHT22;5508;49.150;11.030;2024-02-15T17:21:48;10.20;90.00
10911;DHT22;5508;49.150;11.030;2024-02-15T17:24:50;10.30;90.20
10911;DHT22;5508;49.150;11.030;2024-02-15T17:27:50;10.10;90.70
10911;DHT22;5508;49.150;11.030;2024-02-15T17:30:53;10.00;92.00
10911;DHT22;5508;49.150;11.030;2024-02-15T17:33:53;9.70;93.30
10911;DHT22;5508;49.150;11.030;2024-02-15T17:36:54;9.60;94.20
10911;DHT22;5508;49.150;11.030;2024-02-15T17:39:54;9.50;94.80
10911;DHT22;5508;49.150;11.030;2024-02-15T17:42:55;9.40;96.50
10911;DHT22;5508;49.150;11.030;2024-02-15T17:45:55;9.10;97.80
10911;DHT22;5508;49.150;11.030;2024-02-15T17:49:00;8.90;99.00
10911;DHT22;5508;49.150;11.030;2024-02-15T17:52:00;8.70;99.90
10911;DHT22;5508;49.150;11.030;2024-02-15T17:55:03;8.60;99.90
10911;DHT22;5508;49.150;11.030;2024-02-15T17:58:05;8.50;99.90
10911;DHT22;5508;49.150;11.030;2024-02-15T18:01:06;8.40;99.90
10911;DHT22;5508;49.150;11.030;2024-02-15T18:04:07;8.30;99.90
10911;DHT22;5508;49.150;11.030;2024-02-15T18:07:08;8.30;99.90
10911;DHT22;5508;49.150;11.030;2024-02-15T18:10:09;8.20;99.90
10911;DHT22;5508;49.150;11.030;2024-02-15T18:13:10;8.10;99.90
10911;DHT22;5508;49.150;11.030;2024-02-15T18:16:12;8.10;99.90
10911;DHT22;5508;49.150;11.030;2024-02-15T18:19:15;8.10;99.90
10911;DHT22;5508;49.150;11.030;2024-02-15T18:22:15;8.20;99.90
10911;DHT22;5508;49.150;11.030;2024-02-15T18:25:16;8.10;99.90
10911;DHT22;5508;49.150;11.030;2024-02-15T18:28:17;8.20;99.90
10911;DHT22;5508;49.150;11.030;2024-02-15T18:31:18;8.30;99.90
10911;DHT22;5508;49.150;11.030;2024-02-15T18:34:18;8.70;99.90
10911;DHT22;5508;49.150;11.030;2024-02-15T18:37:19;8.90;99.90
10911;DHT22;5508;49.150;11.030;2024-02-15T18:40:20;9.10;99.90
10911;DHT22;5508;49.150;11.030;2024-02-15T18:43:20;9.20;99.90
10911;DHT22;5508;49.150;11.030;2024-02-15T18:46:21;9.20;99.20
10911;DHT22;5508;49.150;11.030;2024-02-15T18:49:22;9.40;97.60
10911;DHT22;5508;49.150;11.030;2024-02-15T18:52:22;9.50;96.90
10911;DHT22;5508;49.150;11.030;2024-02-15T18:55:24;9.40;97.80
10911;DHT22;5508;49.150;11.030;2024-02-15T18:58:26;9.30;98.20
10911;DHT22;5508;49.150;11.030;2024-02-15T19:01:27;9.20;98.50
10911;DHT22;5508;49.150;11.030;2024-02-15T19:04:28;9.10;98.60
10911;DHT22;5508;49.150;11.030;2024-02-15T19:07:29;8.90;99.90
10911;DHT22;5508;49.150;11.030;2024-02-15T19:10:29;8.90;99.90
10911;DHT22;5508;49.150;11.030;2024-02-15T19:13:30;8.80;99.90
10911;DHT22;5508;49.150;11.030;2024-02-15T19:16:31;8.70;99.90
10911;DHT22;5508;49.150;11.030;2024-02-15T19:19:33;8.50;99.90
10911;DHT22;5508;49.150;11.030;2024-02-15T19:22:35;8.40;99.90
10911;DHT22;5508;49.150;11.030;2024-02-15T19:25:36;8.40;99.90
10911;DHT22;5508;49.150;11.030;2024-02-15T19:28:36;8.40;99.90
10911;DHT22;5508;49.150;11.030;2024-02-15T19:31:37;8.70;99.90